»·PEaware :: N210TB KSNA-KSMO

N210TB :: KSNA-KSMO

FLIGHT INFORMATION

Flight Status: Arrived
Operator: Privately registered:
United States
More flights under this callsign
Pilot: Anonymous 16446 (16446)
Aircraft: CESSNA T210 TURBO CENTURION
(T210)
More flights by this aircraft type
Origin: KSNA John Wayne-Orange Co
United States
Destination: KSMO Santa Monica Mun
United States
More flights between these airports :: More routes between these airports
Route: +
File this flight plan on PilotEdge
Remarks:
Altitude:
(Current/Filed)
2,500ft
Speed:
(Current/Filed)
0kts
Departed: 15-Apr-18 07:52 PM
Arrived: 15-Apr-18 08:31 PM
Distance/Time
Traveled:
35nm/0:39
Distance/Time
To Go:
Arrived

Flight Plot

Page will automatically refresh every two minutes.

Flight plan parsing failed; only flown route is shown


Map Options




Map Legend


Flown Route
Filed Route
Departure Airport
Arrival Airport
Navaid (VOR, NDB)
Fix

Horizontal Profiles

Position Reports

Time Latitude Longitude Heading Altitude Ground
Speed
15-Apr-18 19:12 33.669920 -117.869319 220 60ft 0kts
15-Apr-18 19:13 33.669920 -117.869319 220 60ft 0kts
15-Apr-18 19:14 33.669920 -117.869319 220 60ft 0kts
15-Apr-18 19:15 33.669920 -117.869319 220 60ft 0kts
15-Apr-18 19:16 33.669920 -117.869319 220 60ft 0kts
15-Apr-18 19:17 33.669920 -117.869319 220 60ft 0kts
15-Apr-18 19:18 33.669920 -117.869319 220 60ft 0kts
15-Apr-18 19:19 33.669920 -117.869319 220 60ft 0kts
15-Apr-18 19:20 33.669920 -117.869319 220 60ft 0kts
15-Apr-18 19:21 33.669920 -117.869319 220 60ft 0kts
15-Apr-18 19:22 33.669920 -117.869319 220 60ft 0kts
15-Apr-18 19:23 33.669920 -117.869319 220 60ft 0kts
15-Apr-18 19:24 33.669920 -117.869319 220 60ft 0kts
15-Apr-18 19:25 33.669920 -117.869319 220 60ft 0kts
15-Apr-18 19:26 33.669920 -117.869319 220 60ft 0kts
15-Apr-18 19:27 33.669920 -117.869319 220 60ft 0kts
15-Apr-18 19:28 33.669920 -117.869319 220 60ft 0kts
15-Apr-18 19:29 33.669920 -117.869319 220 60ft 0kts
15-Apr-18 19:30 33.669920 -117.869319 220 60ft 0kts
15-Apr-18 19:31 33.669920 -117.869319 220 60ft 0kts
15-Apr-18 19:32 33.669920 -117.869319 220 60ft 0kts
15-Apr-18 19:33 33.669920 -117.869319 220 60ft 0kts
15-Apr-18 19:34 33.669920 -117.869319 220 60ft 0kts
15-Apr-18 19:35 33.669920 -117.869319 220 60ft 0kts
15-Apr-18 19:36 33.669920 -117.869319 220 60ft 0kts
15-Apr-18 19:37 33.669920 -117.869319 220 60ft 0kts
15-Apr-18 19:38 33.669920 -117.869319 220 60ft 0kts
15-Apr-18 19:39 33.669920 -117.869319 220 60ft 0kts
15-Apr-18 19:40 33.669920 -117.869319 220 60ft 0kts
15-Apr-18 19:41 33.669920 -117.869319 220 60ft 0kts
15-Apr-18 19:42 33.669920 -117.869319 220 60ft 0kts
15-Apr-18 19:43 33.669920 -117.869319 220 60ft 0kts
15-Apr-18 19:44 33.669920 -117.869319 220 60ft 0kts
15-Apr-18 19:45 33.669920 -117.869319 220 60ft 0kts
15-Apr-18 19:46 33.669920 -117.869319 220 60ft 0kts
15-Apr-18 19:47 33.670962 -117.869040 41 60ft 11kts
15-Apr-18 19:48 33.673391 -117.867574 37 60ft 12kts
15-Apr-18 19:49 33.677147 -117.865141 35 60ft 23kts
15-Apr-18 19:50 33.679987 -117.863613 301 60ft 0kts
15-Apr-18 19:51 33.676213 -117.866836 202 135ft 71kts
15-Apr-18 19:52 33.661631 -117.885407 249 1343ft 103kts
15-Apr-18 19:53 33.661180 -117.918662 280 2330ft 122kts
15-Apr-18 19:54 33.696769 -117.929702 23 2488ft 180kts
15-Apr-18 19:55 33.741187 -117.910062 26 2489ft 167kts
15-Apr-18 19:56 33.772613 -117.889222 42 2472ft 161kts
15-Apr-18 19:57 33.806354 -117.855587 46 2473ft 160kts
15-Apr-18 19:58 33.840011 -117.822539 32 2470ft 165kts
15-Apr-18 19:59 33.884413 -117.824374 337 2474ft 171kts
15-Apr-18 20:00 33.927709 -117.846750 323 2476ft 170kts
15-Apr-18 20:01 33.960823 -117.877120 319 2480ft 152kts
15-Apr-18 20:02 33.982252 -117.909523 295 2483ft 143kts
15-Apr-18 20:03 34.017480 -117.927635 356 2484ft 149kts
15-Apr-18 20:04 34.059857 -117.928713 8 2487ft 160kts
15-Apr-18 20:05 34.101801 -117.926181 341 2481ft 167kts
15-Apr-18 20:06 34.133786 -117.947143 307 2476ft 163kts
15-Apr-18 20:07 34.149368 -117.990679 284 2420ft 160kts
15-Apr-18 20:08 34.163035 -118.036115 265 2415ft 152kts
15-Apr-18 20:09 34.151630 -118.073060 234 2420ft 141kts
15-Apr-18 20:10 34.136258 -118.108041 234 2419ft 145kts
15-Apr-18 20:11 34.119952 -118.146103 244 2418ft 149kts
15-Apr-18 20:12 34.114532 -118.194052 255 2492ft 152kts
15-Apr-18 20:13 34.109688 -118.242520 255 2492ft 154kts
15-Apr-18 20:14 34.102851 -118.291701 239 2493ft 148kts
15-Apr-18 20:15 34.089800 -118.337432 252 2492ft 153kts
15-Apr-18 20:16 34.074213 -118.384095 226 2081ft 140kts
15-Apr-18 20:17 34.053609 -118.410642 210 1299ft 92kts
15-Apr-18 20:18 34.035274 -118.430679 211 715ft 79kts
15-Apr-18 20:19 34.019477 -118.447065 212 145ft 61kts
15-Apr-18 20:20 34.008828 -118.458087 214 551ft 78kts
15-Apr-18 20:21 33.996511 -118.458119 133 1254ft 91kts
15-Apr-18 20:22 34.002158 -118.432910 53 1496ft 121kts
15-Apr-18 20:23 34.017550 -118.404527 31 1277ft 99kts
15-Apr-18 20:24 34.033495 -118.420039 272 786ft 95kts
15-Apr-18 20:25 34.021052 -118.445136 223 180ft 86kts
15-Apr-18 20:26 34.003836 -118.464206 195 772ft 95kts
15-Apr-18 20:27 34.000667 -118.440915 52 1135ft 117kts
15-Apr-18 20:28 34.021496 -118.425134 337 668ft 87kts
15-Apr-18 20:29 34.019961 -118.446352 223 146ft 73kts
15-Apr-18 20:30 34.013141 -118.454241 169 138ft 10kts
15-Apr-18 20:31 34.012881 -118.452604 75 138ft 4kts
15-Apr-18 20:32 34.013029 -118.452572 313 138ft 0kts
15-Apr-18 20:33 34.013029 -118.452572 313 138ft 0kts
15-Apr-18 20:34 34.013029 -118.452572 313 138ft 0kts
15-Apr-18 20:35 34.013029 -118.452572 313 138ft 0kts
15-Apr-18 20:36 34.013029 -118.452572 313 138ft 0kts
15-Apr-18 20:37 34.013029 -118.452572 313 138ft 0kts
15-Apr-18 20:38 34.013029 -118.452572 313 138ft 0kts
15-Apr-18 20:39 34.013029 -118.452572 313 138ft 0kts
15-Apr-18 20:40 34.013029 -118.452572 313 138ft 0kts
15-Apr-18 20:41 34.013029 -118.452572 313 138ft 0kts
15-Apr-18 20:42 34.013029 -118.452572 313 138ft 0kts
15-Apr-18 20:43 34.013029 -118.452572 313 138ft 0kts
15-Apr-18 20:44 34.013029 -118.452572 313 138ft 0kts

Navigation Log

Ident Type
Flight plan parsing failed, navigation log unavailable